34ème Rallye Terre des Cardabelles
Championnat de France des Rallyes sur Terre
1 2 CUOQ Jean-Marie/GRANDEMANGE Marielle Citroën C4 WRC FA 8W 29:54,8 1
2 6 BAUD Lionel/BAUD Lucie Citroën DS3 WRC A 8W 30:17,9 +00:23,1 +00:23,1 1
3 5 MAURIN Julien/URAL Olivier Citroën DS3 WRC A 8W 30:31,2 +00:36,4 +00:13,3 1
4 3 FERAUD Cyrille/DUCHEMIN Aymeric Citroën C4 WRC FA 8W 31:05,9 +01:11,1 +00:34,7 1
5 4 DURBEC Thibault/RENUCCI Jacques-Julien Citroën DS3 WRC A 8W 31:14,8 +01:20,0 +00:08,9 1
6 1 BERFA Jordan/AUGUSTIN Damien HUYNDAI i20 R5 R 5 31:24,2 +01:29,4 +00:09,4 1
7 8 MORDACQ Arnaud/ROUX Thomas Mitsubishi Lancer Evo9 FN 4 31:29,9 +01:35,1 +00:05,7 1
8 7 SALGUES Gilles/MOUYSSET Jérôme Citroën Xsara WRC FA 8W 32:06,3 +02:11,5 +00:36,4
9 12 PELUTTIERO Thibaud/REICHENECKER Josh Mitsubishi Lancer EvoX R 4 32:30,2 +02:35,4 +00:23,9 1
10 25 MARTI Christian/NOLORGUES Rémi Mitsubishi Lancer Evo9 FN 4 32:41,0 +02:46,2 +00:10,8 1
11 31 LLARENA Efren/FERNANDEZ Sara Peugeot 208 VTI R 2 32:48,4 +02:53,6 +00:07,4 3
12 36 LARIO Taisko/RYYNANEN Tatu Peugeot 208 VTI R 2 32:54,9 +03:00,1 +00:06,5 3
13 30 PELLIER Laurent/NEYRET-GIGOT Benoît Peugeot 208 VTI R 2 32:57,0 +03:02,2 +00:02,1 3
14 40 BLANC Francois-Xavier/DE TURCKHEIM Gilles Peugeot 208 VTI R 2 32:59,7 +03:04,9 +00:02,7 1 2 3
15 24 CHAYNES Gary/TRIBOUT Christian Mitsubishi Lancer Evo9 FN 4 33:05,3 +03:10,5 +00:05,6 1
16 11 CECCHI Philippe/LETOURNEAU Lara Citroën DS3 R5 R 5 33:07,3 +03:12,5 +00:02,0
17 33 PINHEIRO Karl-Alexandre/LE FLOCH Franck Peugeot 208 VTI R 2 33:09,9 +03:15,1 +00:02,6 3
18 35 BOSCH Florentin/TEMPIER Romain Peugeot 208 VTI R 2 33:25,9 +03:31,1 +00:16,0 3
19 32 SAHILA Aki/SUORSA Rami Peugeot 208 VTI R 2 33:31,7 +03:36,9 +00:05,8 3
20 85 CONDAMINES Florian/CAVAILLES Aurélien Subaru Impreza N 4 33:39,6 +03:44,8 +00:07,9
21 91 DUNAND Alexandre/BROUZE Olivier Subaru Impreza Sti FN 4 33:40,5 +03:45,7 +00:00,9
22 26 JULIA David/AUBERTIN Ludovic Peugeot 206 Rc F2 14 33:51,8 +03:57,0 +00:11,3 1 2
23 34 MAISANO Brandon/PEBEYRE Pierre Peugeot 208 VTI R 2 33:51,8 +03:57,0 3
24 21 ASTIER Loïc/DECLERCK Loïc Citroën DS3 R3 R 3 33:52,7 +03:57,9 +00:00,9 1 2
25 78 MOREL Jean-Luc/GIDEL Philippe Subaru Impreza WRX FN 4 33:53,6 +03:58,8 +00:00,9
26 64 CROS Olivier/PRIVAT Christophe Subaru Impreza FA 8 34:08,6 +04:13,8 +00:15,0
27 37 BAUDOIN Thomas/MILLET Kévin Peugeot 208 VTI R 2 34:09,2 +04:14,4 +00:00,6 3
28 90 VEYRARD Didier/TARDY Vincent Subaru Impreza STI FN 4 34:09,3 +04:14,5 +00:00,1
29 27 MASCLAUX Arnaud/MOULIN Alexandre Renault Clio Ragnotti F2 14 34:13,0 +04:18,2 +00:03,7 1 2
30 17 DESANGLES Yanis/THERON Nicolas Subaru Impreza STI R 4 34:26,0 +04:31,2 +00:13,0
31 19 SALIN Daniel/SALIN Brigitte Subaru Impreza WRX R 4 34:26,7 +04:31,9 +00:00,7
32 39 MOLLARD Alexandre/EYMIN Nicolas Peugeot 208 VTI R 2 34:33,6 +04:38,8 +00:06,9 3
33 41 FRANCESCHI Jean-Baptiste/COURBON Romain Ford Fiesta R2J R 2 34:44,6 +04:49,8 +00:11,0 4
34 70 TARDY Guillaume/CHOUDEY Marc-Emilien Subaru Impreza FA 8 34:58,1 +05:03,3 +00:13,5
35 115 FRANCESCHI Mathieu/MANZO Benoît Citroën C2 R2 R 2 34:58,2 +05:03,4 +00:00,1
36 73 PARISI-FOUQUE Alain/MARSILY Eric Subaru Impreza FA 8 35:04,9 +05:10,1 +00:06,7
37 43 FOURMAUX Adrien/PARENT Kévin Ford Fiesta R2J R 2 35:05,2 +05:10,4 +00:00,3 4
38 81 PUEL Gérard/PUEL Caroline Mitsubishi Lancer Evo8 FN 4 35:05,5 +05:10,7 +00:00,3
39 28 VITAL Jean-Pierre/DECOUZON Pierre Citroën Saxo VTS F2 13 35:11,4 +05:16,6 +00:05,9 1 2
40 105 GILHODES Damien/GILHODES Jean-Louis Citroën Saxo T4 FA 6K 35:11,8 +05:17,0 +00:00,4
41 84 FONTAINE Fabien/BARD Jérôme Mitsubishi Lancer Evo5 FN 4 35:18,2 +05:23,4 +00:06,4
42 47 CHANTRIAUX Audric/GAREL Romain Ford Fiesta R2J R 2 35:25,8 +05:31,0 +00:07,6 4
43 89 BLANC Jean-Francois/ROL Evelyne Mitsubishi Lancer Evo8 FN 4 35:28,0 +05:33,2 +00:02,2
44 110 MAUREL Alain/MAUREL Lucile Citroën Saxo T4 FA 6K 35:28,9 +05:34,1 +00:00,9
45 44 CARTIER Victor/CRAEN Fabien Ford Fiesta R2J R 2 35:38,8 +05:44,0 +00:09,9 4
46 56 EYDOUX Laurent/MOUTOT Olivier Peugeot 206 XS FA 6K 35:38,9 +05:44,1 +00:00,1
47 87 CALAMEL Carol/CALAMEL Amélie Subaru Impreza FN 4 35:39,7 +05:44,9 +00:00,8
48 49 CORNU Alexandre/FASSOLA Thibault Ford Fiesta R2J R 2 35:46,2 +05:51,4 +00:06,5 4
49 82 SOUMAORO Moriféré/JACQUELIN Pierre Mitsubishi Lancer Evo10 N 4 35:53,0 +05:58,2 +00:06,8
50 114 ARTIERES Nicolas/VINCENT Frédéric Peugeot 208 VTI R 2 35:56,7 +06:01,9 +00:03,7
51 48 GIUSTI Igor/DINI Gilbert Ford Fiesta R2J R 2 35:57,6 +06:02,8 +00:00,9 4
52 106 LUCADOU Dominique/LUCADOU Joris Citroën Saxo T4 FA 6K 35:58,4 +06:03,6 +00:00,8
53 29 SABATIER Florent/SANTIAGO Thomas Peugeot 106 S16 FA 6 36:01,5 +06:06,7 +00:03,1 1 2
54 77 CALMELS Pierre/BONALDI Xavier Citroën DS3 R3 R 3 36:10,9 +06:16,1 +00:09,4
55 62 MAUREL Yves/MAUREL Maxime Peugeot 207 S2000 FA 7S 36:13,0 +06:18,2 +00:02,1
56 66 MARON-GIRARD Alain/GRENIER Bernard Mitsubishi Lancer Evo9 FA 8 36:26,4 +06:31,6 +00:13,4
57 109 MAS Paul/BERTRAND Nathalie Citroën Saxo T4 FA 6K 36:26,6 +06:31,8 +00:00,2
58 63 LOPEZ Etienne/MERCIER Marjorie Subaru Impreza WRX FA 8 36:29,8 +06:35,0 +00:03,2
59 108 THEROND Nicolas/BAFFALIE François Citroën Saxo T4 FA 6K 36:29,9 +06:35,1 +00:00,1
60 116 JOUINES Jean/CHABBERT Martin Opel Adam Rally R FR2 36:30,0 +06:35,2 +00:00,1
61 50 PONTAL Julien/BARRAL Florian Ford Fiesta R2J R 2 36:31,9 +06:37,1 +00:01,9 4
62 51 MOUSTIN Doriann/DESNOYERS Alexia Ford Fiesta R2J R 2 36:34,7 +06:39,9 +00:02,8 4
63 20 MORAES Henri/MORAES Anthony Subaru Impreza WRX FA 8 36:35,7 +06:40,9 +00:01,0 1
64 23 CHAPUS Serge/FAVREAU Mathieu Citroën DS3 R3 R 3 36:37,1 +06:42,3 +00:01,4 1 2
65 46 CURIOZ Benjamin/BEERENS Pierre Ford Fiesta R2J R 2 36:37,8 +06:43,0 +00:00,7 4
66 45 GANDELLI David/BIAGETTI Loan Ford Fiesta R2J R 2 36:46,3 +06:51,5 +00:08,5 4
67 104 MARCOBAL Thierry/BOYER Jean-Francois Citroën Saxo T4 FA 6K 36:50,7 +06:55,9 +00:04,4
68 86 ECK Jean-Luc/ECK Aurélien Subaru Impreza WRX FN 4 36:51,9 +06:57,1 +00:01,2
69 120 BOUZID Lilian/VERGNES Antony Peugeot 306 S16 FA 7 36:56,0 +07:01,2 +00:04,1
70 72 GIORDANENGO Jimmy/DELAMOTTE Alexis Mitsubishi Lancer Evo9 FA 8 37:04,6 +07:09,8 +00:08,6
71 125 PANSARD Olivier/GIOVANELLI Christophe Peugeot 205 GTI FA 7 37:10,2 +07:15,4 +00:05,6
72 142 CHENEVAY Rémy/ESCARTEFIGUE Jules Citroën Saxo VTS FA 6 37:13,8 +07:19,0 +00:03,6
73 98 ROUCOULY Mathieu/MONNERON Lionel Peugeot 309 GTI F2 14 37:14,6 +07:19,8 +00:00,8
74 100 MOULIN François/BONNET Dorine Renault Clio RS F2 14 37:14,6 +07:19,8
75 132 ARTZNER Mathieu/GIRARD Vincent Peugeot 206 XS F2 13 37:18,0 +07:23,2 +00:03,4
76 67 MONNIER Alain/JAMAGOTCHIAN Cyril Subaru Impreza Sti FA 8 37:19,1 +07:24,3 +00:01,1
77 124 VIALA Jérôme/ROUBY Nathan Peugeot 206 Rc FA 7 37:20,3 +07:25,5 +00:01,2
78 95 BONALDI Pierre-Benoit/CANTANHEDE Bruno Peugeot 306 S16 F2 14 37:21,3 +07:26,5 +00:01,0
79 126 ROCHER Arnaud/PAULHAN Sabine Renault Clio RS FA 7 37:25,2 +07:30,4 +00:03,9
80 137 GELAS Fabrice/BARRACHIN Florian Peugeot 106 S16 F2 13 37:27,7 +07:32,9 +00:02,5
81 68 PASQUALINI Pierre/OLLARI Gérard B.M.W. 325i FA 8 37:30,1 +07:35,3 +00:02,4
82 118 GABEREL Nicolas/VILANOVA Teddy Peugeot 208 VTI R 2 37:40,7 +07:45,9 +00:10,6
83 53 VIAROUGE David/BENZAL Aurélien Ford Fiesta R2J R 2 37:43,8 +07:49,0 +00:03,1 4
84 65 JARLAN Maxime/CAMALY Thierry Subaru Impreza FA 8 37:43,9 +07:49,1 +00:00,1
85 128 LESCURE Philippe/ESCAICH Bertrand Peugeot 306 S16 FA 7 37:54,8 +08:00,0 +00:10,9
86 107 CHASSANIOL Jacky/CUBIZOLLES Arnaud Citroën Saxo T4 FA 6K 37:55,4 +08:00,6 +00:00,6
87 111 ESPALIEU David/NUNES Robert Citroën Saxo T4 FA 6K 38:04,0 +08:09,2 +00:08,6
88 55 GILLET Nicolas/CORIA Alexandre Ford Fiesta R2J R 2 38:12,9 +08:18,1 +00:08,9 4
89 140 RALITE Christophe/ABBAL Marie Peugeot 106 S16 FA 6 38:18,1 +08:23,3 +00:05,2
90 129 BRAJON Ludovic/SALANSON Thierry Renault Clio RS FN 3 38:22,8 +08:28,0 +00:04,7
91 127 TROMEL Frank/TROMEL Corinne Peugeot 206 Rc FA 7 38:30,2 +08:35,4 +00:07,4
92 123 FRELAUT Yohann/CASSAGNADE Pascal Peugeot 206 Rc FA 7 38:54,9 +09:00,1 +00:24,7
93 59 CLEMENT Frédéric/COSTES François Peugeot 206 Rc F2 14 39:21,2 +09:26,4 +00:26,3 1 2
94 112 BIAU Jean-Luc/BROLIQUET Eric Peugeot 206 XS FA 6K 39:28,3 +09:33,5 +00:07,1
95 9 PETIT Jean-Eric/MAURIN Mathieu Ford Fiesta R5 R 5 39:36,1 +09:41,3 +00:07,8 1
96 93 CHARRIE Yoann/JAMMES Yannick Peugeot 206 Rc F2 14 39:36,5 +09:41,7 +00:00,4
97 121 GAGNEUR Hervé/DESNOYERS Jean-Philippe Peugeot 306 S16 FA 7 39:38,5 +09:43,7 +00:02,0
98 135 GERMAIN Alex/POIROT Edgard Peugeot 205 GTI F2 13 39:40,5 +09:45,7 +00:02,0
99 52 VIANO Allison/CHOL Cecilia Ford Fiesta R2J R 2 39:42,8 +09:48,0 +00:02,3 4
100 117 LEYGUE Laurent/GEORGE Nicolas Peugeot 208 VTI R 2 39:57,1 +10:02,3 +00:14,3
101 102 VIDAL Marc/MONTARON Loïc Peugeot 309 GTI 16S F2 14 40:10,9 +10:16,1 +00:13,8
102 136 MAJOREL Clément/GINESTE Elsa Peugeot 106 S16 F2 13 40:29,1 +10:34,3 +00:18,2
103 61 BELLIARDO Daniel/BRAQUET Jean-Baptiste Peugeot 306 S16 FN 3 40:44,7 +10:49,9 +00:15,6 1 2
104 147 AGNIEL Damien/PAYSAN Jean-Paul Peugeot 106 XSI FN 2 41:38,9 +11:44,1 +00:54,2
105 122 GUILLON Jean-Luc/NEGRE Jean-Pierre Peugeot 206 GT FA 7 41:43,2 +11:48,4 +00:04,3
106 94 MARTIN Gary/FACCIO Alexandra Peugeot 106 S16 F2 13 42:09,2 +12:14,4 +00:26,0
107 131 PIQUERAS Jérôme/BLANC Morgan Peugeot 205 GTI F2 13 42:16,1 +12:21,3 +00:06,9
108 96 BARAT DA COSTA RODRIGO Tony/LOPEZ Yannick B.M.W. 320i F2 14 42:18,8 +12:24,0 +00:02,7
109 144 PORTAL Kévin/YONNET Fabien Ford Fiesta R1 R 1 42:29,2 +12:34,4 +00:10,4
110 146 FRANCOIS Léa/FRANCOIS Solene Peugeot 106 S16 FN 2 43:04,0 +13:09,2 +00:34,8
111 145 LATIEZE Yvan/GOUY Cindy Peugeot 106 S16 FN 2 44:17,2 +14:22,4 +01:13,2
112 143 POUGET Dorian/BERNARD Kévin Peugeot 106 XSI FA 5K 44:42,5 +14:47,7 +00:25,3
113 149 BES Yves/BURGUIERE Alexis Peugeot 106 XR F2 11 45:03,4 +15:08,6 +00:20,9
114 148 LEMAIRE Yoann/POMAREDE Marc Citroën Saxo VTS F2 12 49:20,9 +19:26,1 +04:17,5
115 138 PICARD Erick/LEBRETTON Amandine Dacia Logan F2 13 51:19,3 +21:24,5 +01:58,4
Clt Equipage Voiture Gr/Cl Temps Ecart 1er Ecart préc. Catégories
Commentaires: © PatricK Soft  
(Temps forfaitaires=couleur bleue)
Classés:115

Epreuve: Groupe: Catégorie:

 
Retour
Classement après ES3-Sainte Eulalie 1 (12.000 km)